createdAt,value
2018-09-09T00:02:14.367Z,99793.58
2018-09-09T00:04:43.469Z,99793.05
2018-09-09T00:07:12.569Z,99793.05
2018-09-09T00:09:46.684Z,99791.71
2018-09-09T00:12:15.863Z,99786.80
2018-09-09T00:14:44.767Z,99787.66
2018-09-09T00:17:13.877Z,99789.05
2018-09-09T00:19:43.079Z,99791.51
2018-09-09T00:22:12.013Z,99783.88
2018-09-09T00:24:47.584Z,99785.51
2018-09-09T00:27:16.814Z,99788.00
2018-09-09T00:29:45.800Z,99786.66
2018-09-09T00:32:14.932Z,99785.01
2018-09-09T00:34:43.889Z,99786.10
2018-09-09T00:37:13.545Z,99788.84
2018-09-09T00:39:42.484Z,99781.75
2018-09-09T00:42:12.107Z,99782.54
2018-09-09T00:44:41.278Z,99783.36
2018-09-09T00:47:10.649Z,99777.89
2018-09-09T00:49:44.656Z,99783.36
2018-09-09T00:52:18.914Z,99782.54
2018-09-09T00:54:47.899Z,99782.81
2018-09-09T00:57:16.980Z,99782.81
2018-09-09T00:59:46.314Z,99776.52
2018-09-09T01:02:15.596Z,99780.63
2018-09-09T01:04:44.633Z,99775.45
2018-09-09T01:07:14.290Z,99777.09
2018-09-09T01:09:43.822Z,99779.31
2018-09-09T01:12:13.159Z,99773.56
2018-09-09T01:14:42.144Z,99768.63
2018-09-09T01:17:11.468Z,99775.73
2018-09-09T01:19:41.098Z,99774.13
2018-09-09T01:22:10.321Z,99772.48
2018-09-09T01:24:39.877Z,99774.70
2018-09-09T01:27:08.989Z,99782.09
2018-09-09T01:29:38.465Z,99790.02
2018-09-09T01:32:07.583Z,99793.58
2018-09-09T01:34:36.581Z,99791.11
2018-09-09T01:37:05.770Z,99785.11
2018-09-09T01:39:34.846Z,99791.16
2018-09-09T01:42:03.784Z,99781.84
2018-09-09T01:44:33.262Z,99784.30
2018-09-09T01:47:02.774Z,99790.63
2018-09-09T01:49:31.983Z,99787.61
2018-09-09T01:52:01.498Z,99787.33
2018-09-09T01:54:30.752Z,99787.63
2018-09-09T01:56:59.852Z,99789.00
2018-09-09T01:59:29.406Z,99787.89
2018-09-09T02:01:58.773Z,99787.08
2018-09-09T02:04:27.783Z,99793.64
2018-09-09T02:06:56.760Z,99793.64
2018-09-09T02:09:25.858Z,99795.56
2018-09-09T02:11:54.786Z,99796.65
2018-09-09T02:14:23.949Z,99798.56
2018-09-09T02:16:52.989Z,99792.84
2018-09-09T02:19:22.375Z,99800.23
2018-09-09T02:21:51.743Z,99800.23
2018-09-09T02:24:21.282Z,99801.86
2018-09-09T02:26:56.907Z,99798.84
2018-09-09T02:29:26.433Z,99802.97
2018-09-09T02:31:55.308Z,99803.52
2018-09-09T02:34:24.494Z,99806.55
2018-09-09T02:36:53.958Z,99804.91
2018-09-09T02:39:23.142Z,99802.72
2018-09-09T02:41:52.177Z,99803.56
2018-09-09T02:44:21.632Z,99801.35
2018-09-09T02:46:51.029Z,99802.73
2018-09-09T02:49:20.206Z,99806.86
2018-09-09T02:51:49.327Z,99805.76
2018-09-09T02:54:18.263Z,99803.26
2018-09-09T02:56:47.374Z,99802.45
2018-09-09T02:59:16.720Z,99807.39
2018-09-09T03:01:45.771Z,99800.28
2018-09-09T03:04:15.193Z,99811.22
2018-09-09T03:06:44.458Z,99811.22
2018-09-09T03:09:13.482Z,99813.13
2018-09-09T03:11:43.587Z,99815.58
2018-09-09T03:14:12.703Z,99818.62
2018-09-09T03:16:41.895Z,99809.05
2018-09-09T03:19:10.997Z,99815.60
2018-09-09T03:21:39.958Z,99810.95
2018-09-09T03:24:08.879Z,99810.13
2018-09-09T03:26:38.201Z,99811.22
2018-09-09T03:29:07.484Z,99806.59
2018-09-09T03:31:36.508Z,99800.57
2018-09-09T03:34:05.623Z,99807.98
2018-09-09T03:36:34.665Z,99812.88
2018-09-09T03:39:05.088Z,99813.71
2018-09-09T03:41:34.047Z,99815.34
2018-09-09T03:44:03.237Z,99819.44
2018-09-09T03:46:32.279Z,99815.90
2018-09-09T03:49:01.674Z,99816.73
2018-09-09T03:51:30.801Z,99817.00
2018-09-09T03:53:59.959Z,99817.30
2018-09-09T03:56:29.069Z,99821.12
2018-09-09T03:58:58.092Z,99827.39
2018-09-09T04:01:27.112Z,99822.22
2018-09-09T04:03:56.398Z,99824.67
2018-09-09T04:06:25.712Z,99830.14
2018-09-09T04:08:54.854Z,99829.31
2018-09-09T04:11:23.976Z,99829.61
2018-09-09T04:13:53.037Z,99828.50
2018-09-09T04:16:22.338Z,99827.69
2018-09-09T04:18:51.517Z,99832.87
2018-09-09T04:21:21.218Z,99830.43
2018-09-09T04:23:50.219Z,99830.69
2018-09-09T04:26:19.311Z,99832.59
2018-09-09T04:28:48.415Z,99833.72
2018-09-09T04:31:17.584Z,99837.24
2018-09-09T04:33:46.737Z,99832.89
2018-09-09T04:36:15.848Z,99835.63
2018-09-09T04:38:44.836Z,99836.99
2018-09-09T04:41:14.402Z,99842.45
2018-09-09T04:43:43.341Z,99843.82
2018-09-09T04:46:12.588Z,99839.72
2018-09-09T04:48:42.313Z,99851.73
2018-09-09T04:51:11.507Z,99847.64
2018-09-09T04:53:40.500Z,99850.91
2018-09-09T04:56:09.632Z,99853.64
2018-09-09T04:58:38.859Z,99845.45
2018-09-09T05:01:07.765Z,99845.19
2018-09-09T05:03:36.908Z,99849.54
2018-09-09T05:06:06.313Z,99849.81
2018-09-09T05:08:35.241Z,99849.02
2018-09-09T05:11:04.329Z,99851.75
2018-09-09T05:13:34.858Z,99854.47
2018-09-09T05:16:03.899Z,99854.20
2018-09-09T05:18:33.389Z,99850.91
2018-09-09T05:21:02.475Z,99851.72
2018-09-09T05:23:31.534Z,99855.81
2018-09-09T05:26:00.493Z,99860.17
2018-09-09T05:28:29.584Z,99857.16
2018-09-09T05:30:58.606Z,99857.98
2018-09-09T05:33:27.572Z,99859.89
2018-09-09T05:35:56.791Z,99864.80
2018-09-09T05:38:26.019Z,99865.09
2018-09-09T05:40:55.090Z,99871.61
2018-09-09T05:43:24.043Z,99874.92
2018-09-09T05:45:54.763Z,99869.72
2018-09-09T05:48:23.877Z,99873.02
2018-09-09T05:50:52.880Z,99866.44
2018-09-09T05:53:22.002Z,99871.33
2018-09-09T05:55:51.375Z,99870.50
2018-09-09T05:58:20.857Z,99872.41
2018-09-09T06:00:49.890Z,99873.49
2018-09-09T06:03:19.010Z,99872.65
2018-09-09T06:05:49.193Z,99877.02
2018-09-09T06:08:18.269Z,99878.67
2018-09-09T06:10:51.514Z,99881.37
2018-09-09T06:13:20.831Z,99881.36
2018-09-09T06:15:49.818Z,99887.91
2018-09-09T06:18:19.359Z,99883.77
2018-09-09T06:20:48.634Z,99885.94
2018-09-09T06:23:17.728Z,99887.55
2018-09-09T06:25:48.076Z,99888.90
2018-09-09T06:28:17.353Z,99892.45
2018-09-09T06:30:46.632Z,99897.09
2018-09-09T06:33:15.675Z,99900.91
2018-09-09T06:35:44.739Z,99899.23
2018-09-09T06:38:14.335Z,99895.95
2018-09-09T06:40:43.250Z,99898.42
2018-09-09T06:43:12.737Z,99898.66
2018-09-09T06:45:41.754Z,99895.93
2018-09-09T06:48:11.415Z,99907.41
2018-09-09T06:50:40.527Z,99908.20
2018-09-09T06:53:09.638Z,99913.66
2018-09-09T06:55:38.843Z,99912.84
2018-09-09T06:58:08.743Z,99914.47
2018-09-09T07:00:37.672Z,99914.41
2018-09-09T07:03:07.135Z,99920.39
2018-09-09T07:05:36.156Z,99918.73
2018-09-09T07:08:05.283Z,99924.97
2018-09-09T07:10:34.483Z,99923.84
2018-09-09T07:13:03.524Z,99925.47
2018-09-09T07:15:32.519Z,99921.94
2018-09-09T07:18:01.981Z,99928.51
2018-09-09T07:20:31.062Z,99927.14
2018-09-09T07:23:00.470Z,99926.84
2018-09-09T07:25:29.610Z,99921.08
2018-09-09T07:27:58.640Z,99927.96
2018-09-09T07:30:27.736Z,99931.28
2018-09-09T07:32:57.055Z,99931.30
2018-09-09T07:35:26.150Z,99929.39
2018-09-09T07:37:55.636Z,99931.00
2018-09-09T07:40:24.551Z,99936.19
2018-09-09T07:42:53.814Z,99932.07
2018-09-09T07:45:23.012Z,99934.23
2018-09-09T07:47:52.319Z,99937.80
2018-09-09T07:50:21.374Z,99940.76
2018-09-09T07:52:50.628Z,99931.38
2018-09-09T07:55:19.736Z,99933.82
2018-09-09T07:57:50.219Z,99934.61
2018-09-09T08:00:19.340Z,99933.48
2018-09-09T08:02:48.202Z,99935.03
2018-09-09T08:05:17.193Z,99935.27
2018-09-09T08:07:46.933Z,99942.37
2018-09-09T08:10:16.872Z,99946.17
2018-09-09T08:12:45.975Z,99944.49
2018-09-09T08:15:15.229Z,99941.16
2018-09-09T08:17:44.570Z,99946.92
2018-09-09T08:20:13.936Z,99949.91
2018-09-09T08:22:43.155Z,99944.73
2018-09-09T08:25:12.315Z,99944.11
2018-09-09T08:27:41.448Z,99945.68
2018-09-09T08:30:10.608Z,99942.03
2018-09-09T08:32:39.577Z,99948.30
2018-09-09T08:35:08.844Z,99950.70
2018-09-09T08:37:37.890Z,99943.80
2018-09-09T08:40:07.794Z,99948.17
2018-09-09T08:42:36.712Z,99945.34
2018-09-09T08:45:06.534Z,99948.55
2018-09-09T08:47:35.750Z,99945.12
2018-09-09T08:50:04.770Z,99949.41
2018-09-09T08:52:33.986Z,99941.91
2018-09-09T08:55:03.148Z,99937.69
2018-09-09T08:57:32.573Z,99934.55
2018-09-09T09:00:02.190Z,99930.02
2018-09-09T09:02:31.700Z,99936.53
2018-09-09T09:05:00.658Z,99935.09
2018-09-09T09:07:30.256Z,99927.89
2018-09-09T09:10:00.576Z,99926.14
2018-09-09T09:12:29.976Z,99925.78
2018-09-09T09:14:59.118Z,99926.22
2018-09-09T09:17:28.226Z,99934.13
2018-09-09T09:19:57.522Z,99925.23
2018-09-09T09:22:26.907Z,99930.61
2018-09-09T09:24:55.894Z,99935.14
2018-09-09T09:27:25.019Z,99934.67
2018-09-09T09:29:57.715Z,99933.98
2018-09-09T09:32:27.174Z,99928.92
2018-09-09T09:34:56.975Z,99928.73
2018-09-09T09:37:26.848Z,99918.41
2018-09-09T09:39:56.566Z,99912.69
2018-09-09T09:42:25.963Z,99910.61
2018-09-09T09:44:55.767Z,99908.87
2018-09-09T09:47:24.929Z,99904.89
2018-09-09T09:49:54.882Z,99900.31
2018-09-09T09:52:24.114Z,99898.19
2018-09-09T09:54:53.176Z,99895.80
2018-09-09T09:57:22.937Z,99896.41
2018-09-09T09:59:53.377Z,99890.73
2018-09-09T10:02:22.552Z,99886.06
2018-09-09T10:04:52.270Z,99899.64
2018-09-09T10:07:21.312Z,99888.29
2018-09-09T10:09:50.336Z,99892.98
2018-09-09T10:12:19.900Z,99890.78
2018-09-09T10:14:49.049Z,99889.14
2018-09-09T10:17:18.392Z,99883.88
2018-09-09T10:19:47.708Z,99886.31
2018-09-09T10:22:17.024Z,99884.17
2018-09-09T10:24:46.456Z,99880.21
2018-09-09T10:27:16.473Z,99889.48
2018-09-09T10:29:45.606Z,99876.07
2018-09-09T10:32:15.172Z,99873.69
2018-09-09T10:34:44.232Z,99875.81
2018-09-09T10:37:13.391Z,99869.65
2018-09-09T10:39:42.613Z,99872.03
2018-09-09T10:42:11.699Z,99873.23
2018-09-09T10:44:41.563Z,99875.52
2018-09-09T10:47:17.111Z,99869.56
2018-09-09T10:49:46.316Z,99875.09
2018-09-09T10:52:15.219Z,99874.83
2018-09-09T10:54:44.319Z,99878.75
2018-09-09T10:57:13.306Z,99875.20
2018-09-09T10:59:43.098Z,99879.86
2018-09-09T11:02:12.271Z,99870.47
2018-09-09T11:04:47.623Z,99873.16
2018-09-09T11:07:16.740Z,99877.08
2018-09-09T11:09:45.822Z,99880.67
2018-09-09T11:12:15.189Z,99872.05
2018-09-09T11:14:44.165Z,99871.80
2018-09-09T11:17:13.160Z,99872.22
2018-09-09T11:19:42.343Z,99868.41
2018-09-09T11:22:13.601Z,99872.56
2018-09-09T11:24:42.952Z,99871.91
2018-09-09T11:27:12.194Z,99878.16
2018-09-09T11:29:41.391Z,99875.33
2018-09-09T11:32:10.590Z,99869.14
2018-09-09T11:34:39.804Z,99874.27
2018-09-09T11:37:08.973Z,99876.22
2018-09-09T11:39:38.338Z,99868.57
2018-09-09T11:42:07.327Z,99868.06
2018-09-09T11:44:36.763Z,99867.40
2018-09-09T11:47:06.188Z,99863.19
2018-09-09T11:49:35.464Z,99868.32
2018-09-09T11:52:04.426Z,99867.19
2018-09-09T11:54:33.531Z,99866.69
2018-09-09T11:57:02.587Z,99866.53
2018-09-09T11:59:31.515Z,99862.78
2018-09-09T12:02:00.596Z,99862.27
2018-09-09T12:04:29.942Z,99859.65
2018-09-09T12:06:59.209Z,99856.87
2018-09-09T12:09:28.296Z,99846.09
2018-09-09T12:11:57.171Z,99850.23
2018-09-09T12:14:26.409Z,99842.95
2018-09-09T12:16:55.375Z,99844.06
2018-09-09T12:19:24.664Z,99838.25
2018-09-09T12:21:53.914Z,99842.27
2018-09-09T12:24:23.258Z,99835.19
2018-09-09T12:26:52.296Z,99836.86
2018-09-09T12:29:21.307Z,99839.38
2018-09-09T12:31:50.297Z,99836.44
2018-09-09T12:34:26.185Z,99829.53
2018-09-09T12:36:55.447Z,99830.48
2018-09-09T12:39:24.595Z,99828.34
2018-09-09T12:41:53.594Z,99832.52
2018-09-09T12:44:27.770Z,99830.12
2018-09-09T12:47:02.089Z,99824.95
2018-09-09T12:49:31.440Z,99822.42
2018-09-09T12:52:00.417Z,99821.98
2018-09-09T12:54:29.681Z,99826.84
2018-09-09T12:57:01.265Z,99821.87
2018-09-09T12:59:30.494Z,99826.16
2018-09-09T13:01:59.408Z,99823.27
2018-09-09T13:04:28.558Z,99823.68
2018-09-09T13:06:57.601Z,99820.22
2018-09-09T13:09:26.702Z,99825.39
2018-09-09T13:11:55.743Z,99817.56
2018-09-09T13:14:24.880Z,99812.95
2018-09-09T13:16:53.869Z,99810.87
2018-09-09T13:19:22.885Z,99808.46
2018-09-09T13:21:52.046Z,99799.65
2018-09-09T13:24:21.328Z,99795.85
2018-09-09T13:26:50.956Z,99797.83
2018-09-09T13:29:19.942Z,99802.23
2018-09-09T13:31:49.064Z,99802.30
2018-09-09T13:34:18.065Z,99797.64
2018-09-09T13:36:47.463Z,99795.40
2018-09-09T13:39:16.437Z,99795.40
2018-09-09T13:41:45.798Z,99788.58
2018-09-09T13:44:15.124Z,99800.58
2018-09-09T13:46:44.312Z,99795.63
2018-09-09T13:49:13.357Z,99801.62
2018-09-09T13:51:42.344Z,99798.22
2018-09-09T13:54:11.562Z,99798.09
2018-09-09T13:56:40.654Z,99796.69
2018-09-09T13:59:10.075Z,99798.97
2018-09-09T14:01:39.206Z,99794.00
2018-09-09T14:04:08.230Z,99790.06
2018-09-09T14:06:37.945Z,99790.36
2018-09-09T14:09:08.338Z,99785.47
2018-09-09T14:11:37.791Z,99786.41
2018-09-09T14:14:06.901Z,99789.11
2018-09-09T14:16:36.496Z,99791.33
2018-09-09T14:19:05.829Z,99782.00
2018-09-09T14:21:34.821Z,99794.50
2018-09-09T14:24:03.814Z,99787.83
2018-09-09T14:26:33.041Z,99785.10
2018-09-09T14:29:02.766Z,99790.29
2018-09-09T14:31:31.797Z,99788.91
2018-09-09T14:34:01.242Z,99786.38
2018-09-09T14:36:30.371Z,99783.34
2018-09-09T14:38:59.836Z,99788.40
2018-09-09T14:41:29.312Z,99796.25
2018-09-09T14:43:58.465Z,99796.25
2018-09-09T14:46:27.887Z,99802.50
2018-09-09T14:48:56.877Z,99801.81
2018-09-09T14:51:25.965Z,99799.73
2018-09-09T14:53:55.040Z,99802.19
2018-09-09T14:56:24.212Z,99795.70
2018-09-09T14:58:53.513Z,99791.22
2018-09-09T15:01:22.530Z,99798.43
2018-09-09T15:03:51.826Z,99792.70
2018-09-09T15:06:21.119Z,99799.91
2018-09-09T15:08:50.240Z,99802.67
2018-09-09T15:11:19.572Z,99797.86
2018-09-09T15:13:48.810Z,99802.37
2018-09-09T15:16:17.864Z,99799.67
2018-09-09T15:18:47.251Z,99795.83
2018-09-09T15:21:16.672Z,99799.28
2018-09-09T15:23:45.744Z,99793.81
2018-09-09T15:26:14.961Z,99789.77
2018-09-09T15:28:44.015Z,99795.19
2018-09-09T15:31:13.285Z,99791.59
2018-09-09T15:33:42.412Z,99791.73
2018-09-09T15:36:11.395Z,99780.50
2018-09-09T15:38:40.757Z,99785.17
2018-09-09T15:41:09.811Z,99781.95
2018-09-09T15:43:38.970Z,99785.42
2018-09-09T15:46:08.171Z,99787.26
2018-09-09T15:48:38.006Z,99779.63
2018-09-09T15:51:07.331Z,99783.53
2018-09-09T15:53:36.323Z,99780.31
2018-09-09T15:56:05.391Z,99779.95
2018-09-09T15:58:34.571Z,99777.42
2018-09-09T16:01:04.006Z,99781.01
2018-09-09T16:03:33.408Z,99781.70
2018-09-09T16:06:02.346Z,99788.37
2018-09-09T16:08:31.434Z,99790.70
2018-09-09T16:11:01.103Z,99788.48
2018-09-09T16:13:30.328Z,99787.75
2018-09-09T16:15:59.893Z,99784.52
2018-09-09T16:18:28.929Z,99793.58
2018-09-09T16:20:58.626Z,99796.97
2018-09-09T16:23:27.942Z,99794.23
2018-09-09T16:25:57.572Z,99808.58
2018-09-09T16:28:26.665Z,99811.52
2018-09-09T16:30:55.635Z,99807.84
2018-09-09T16:33:24.878Z,99803.56
2018-09-09T16:35:53.929Z,99801.53
2018-09-09T16:38:23.019Z,99795.44
2018-09-09T16:40:52.092Z,99793.60
2018-09-09T16:43:21.076Z,99792.39
2018-09-09T16:45:50.066Z,99791.42
2018-09-09T16:48:19.479Z,99784.66
2018-09-09T16:50:49.252Z,99780.61
2018-09-09T16:53:18.448Z,99782.77
2018-09-09T16:55:47.681Z,99785.66
2018-09-09T16:58:16.805Z,99785.91
2018-09-09T17:00:45.788Z,99792.33
2018-09-09T17:03:14.829Z,99792.14
2018-09-09T17:05:43.820Z,99778.47
2018-09-09T17:08:13.106Z,99773.34
2018-09-09T17:10:42.130Z,99772.37
2018-09-09T17:13:12.044Z,99770.27
2018-09-09T17:15:41.150Z,99769.80
2018-09-09T17:18:10.358Z,99770.68
2018-09-09T17:20:39.542Z,99780.20
2018-09-09T17:23:08.439Z,99781.99
2018-09-09T17:25:38.250Z,99782.18
2018-09-09T17:28:07.385Z,99788.37
2018-09-09T17:30:36.599Z,99785.09
2018-09-09T17:33:05.671Z,99781.05
2018-09-09T17:35:34.753Z,99777.21
2018-09-09T17:38:04.683Z,99782.83
2018-09-09T17:40:33.764Z,99780.37
2018-09-09T17:43:03.073Z,99776.89
2018-09-09T17:45:32.183Z,99785.50
2018-09-09T17:48:01.390Z,99787.78
2018-09-09T17:50:30.494Z,99790.39
2018-09-09T17:52:59.510Z,99788.50
2018-09-09T17:55:28.763Z,99783.88
2018-09-09T17:57:57.828Z,99790.03
2018-09-09T18:00:27.044Z,99790.91
2018-09-09T18:02:56.194Z,99792.38
2018-09-09T18:05:25.832Z,99789.45
2018-09-09T18:07:54.796Z,99796.10
2018-09-09T18:10:23.798Z,99803.98
2018-09-09T18:12:53.007Z,99811.53
2018-09-09T18:15:22.268Z,99809.98
2018-09-09T18:17:51.352Z,99817.80
2018-09-09T18:20:20.714Z,99819.80
2018-09-09T18:22:49.950Z,99825.16
2018-09-09T18:25:19.037Z,99829.38
2018-09-09T18:27:48.099Z,99830.28
2018-09-09T18:30:17.275Z,99827.92
2018-09-09T18:32:46.357Z,99833.49
2018-09-09T18:35:15.435Z,99834.39
2018-09-09T18:37:44.763Z,99839.75
2018-09-09T18:40:13.879Z,99840.14
2018-09-09T18:42:43.195Z,99849.06
2018-09-09T18:45:12.514Z,99848.07
2018-09-09T18:47:42.071Z,99842.94
2018-09-09T18:50:11.173Z,99839.18
2018-09-09T18:52:40.173Z,99840.09
2018-09-09T18:55:09.291Z,99835.22
2018-09-09T18:57:38.427Z,99833.09
2018-09-09T19:00:08.374Z,99837.06
2018-09-09T19:02:40.424Z,99833.30
2018-09-09T19:05:09.778Z,99832.31
2018-09-09T19:07:38.727Z,99835.19
2018-09-09T19:10:08.479Z,99829.58
2018-09-09T19:12:37.627Z,99834.96
2018-09-09T19:15:07.034Z,99827.95
2018-09-09T19:17:36.191Z,99829.23
2018-09-09T19:20:05.164Z,99829.65
2018-09-09T19:22:34.398Z,99830.92
2018-09-09T19:25:03.616Z,99829.37
2018-09-09T19:27:32.850Z,99834.77
2018-09-09T19:30:01.794Z,99833.84
2018-09-09T19:32:30.930Z,99832.64
2018-09-09T19:34:59.877Z,99841.03
2018-09-09T19:37:28.952Z,99834.94
2018-09-09T19:39:58.342Z,99832.55
2018-09-09T19:42:27.908Z,99831.55
2018-09-09T19:44:57.099Z,99837.69
2018-09-09T19:47:26.242Z,99843.82
2018-09-09T19:49:56.330Z,99834.84
2018-09-09T19:52:25.698Z,99836.58
2018-09-09T19:54:55.032Z,99829.56
2018-09-09T19:57:24.413Z,99833.47
2018-09-09T19:59:53.745Z,99827.50
2018-09-09T20:02:23.394Z,99830.88
2018-09-09T20:04:52.696Z,99841.94
2018-09-09T20:07:22.358Z,99842.33
2018-09-09T20:09:51.667Z,99842.69
2018-09-09T20:12:21.119Z,99843.90
2018-09-09T20:14:50.373Z,99842.65
2018-09-09T20:17:20.542Z,99846.61
2018-09-09T20:19:49.721Z,99848.61
2018-09-09T20:22:19.458Z,99850.89
2018-09-09T20:24:48.932Z,99847.38
2018-09-09T20:27:18.161Z,99845.80
2018-09-09T20:29:47.300Z,99841.77
2018-09-09T20:32:16.353Z,99841.30
2018-09-09T20:34:45.616Z,99846.09
2018-09-09T20:37:14.753Z,99849.14
2018-09-09T20:39:44.181Z,99851.39
2018-09-09T20:42:13.327Z,99852.51
2018-09-09T20:44:43.112Z,99848.41
2018-09-09T20:47:12.436Z,99849.02
2018-09-09T20:49:41.795Z,99849.87
2018-09-09T20:52:11.036Z,99846.85
2018-09-09T20:54:40.332Z,99846.85
2018-09-09T20:57:09.656Z,99844.09
2018-09-09T20:59:39.006Z,99852.62
2018-09-09T21:02:08.531Z,99848.23
2018-09-09T21:04:38.284Z,99852.33
2018-09-09T21:07:07.516Z,99847.11
2018-09-09T21:09:36.708Z,99849.87
2018-09-09T21:12:06.855Z,99844.36
2018-09-09T21:14:35.902Z,99846.06
2018-09-09T21:17:04.972Z,99842.49
2018-09-09T21:19:34.400Z,99847.17
2018-09-09T21:22:03.473Z,99848.81
2018-09-09T21:24:32.682Z,99850.48
2018-09-09T21:27:01.881Z,99846.44
2018-09-09T21:29:31.654Z,99840.52
2018-09-09T21:32:01.259Z,99841.97
2018-09-09T21:34:30.588Z,99847.32
2018-09-09T21:36:59.910Z,99851.23
2018-09-09T21:39:29.086Z,99851.84
2018-09-09T21:41:58.425Z,99856.52
2018-09-09T21:44:27.657Z,99848.27
2018-09-09T21:46:56.900Z,99855.41
2018-09-09T21:49:26.145Z,99848.54
2018-09-09T21:51:55.163Z,99847.40
2018-09-09T21:54:24.446Z,99851.29
2018-09-09T21:56:53.968Z,99846.95
2018-09-09T21:59:23.041Z,99845.59
2018-09-09T22:01:57.045Z,99846.55
2018-09-09T22:04:26.232Z,99853.53
2018-09-09T22:06:55.378Z,99848.94
2018-09-09T22:09:24.354Z,99848.22
2018-09-09T22:11:53.309Z,99850.74
2018-09-09T22:14:23.271Z,99853.59
2018-09-09T22:16:52.306Z,99850.64
2018-09-09T22:19:21.587Z,99850.19
2018-09-09T22:21:50.863Z,99857.67
2018-09-09T22:24:21.154Z,99850.88
2018-09-09T22:26:50.302Z,99854.53
2018-09-09T22:29:19.494Z,99851.85
2018-09-09T22:31:49.976Z,99852.18
2018-09-09T22:34:19.082Z,99851.14
2018-09-09T22:36:48.101Z,99849.54
2018-09-09T22:39:17.304Z,99848.45
2018-09-09T22:41:46.581Z,99850.95
2018-09-09T22:44:15.644Z,99855.08
2018-09-09T22:46:44.915Z,99856.18
2018-09-09T22:49:14.189Z,99852.11
2018-09-09T22:51:43.231Z,99858.16
2018-09-09T22:54:12.585Z,99859.25
2018-09-09T22:56:41.748Z,99859.80
2018-09-09T22:59:10.866Z,99862.00
2018-09-09T23:01:40.113Z,99854.87
2018-09-09T23:04:09.313Z,99856.47
2018-09-09T23:06:38.550Z,99861.39
2018-09-09T23:09:10.097Z,99863.83
2018-09-09T23:11:39.026Z,99861.08
2018-09-09T23:14:08.730Z,99858.88
2018-09-09T23:16:38.804Z,99858.88
2018-09-09T23:19:08.014Z,99863.83
2018-09-09T23:21:37.671Z,99860.81
2018-09-09T23:24:07.062Z,99862.45
2018-09-09T23:26:36.093Z,99867.67
2018-09-09T23:29:05.139Z,99858.38
2018-09-09T23:31:34.348Z,99859.52
2018-09-09T23:34:03.322Z,99862.33
2018-09-09T23:36:33.271Z,99858.25
2018-09-09T23:39:02.663Z,99861.28
2018-09-09T23:41:31.661Z,99859.91
2018-09-09T23:44:00.816Z,99863.47
2018-09-09T23:46:29.976Z,99856.61
2018-09-09T23:48:59.197Z,99858.53
2018-09-09T23:51:28.496Z,99861.55
2018-09-09T23:53:57.826Z,99862.92
2018-09-09T23:56:27.107Z,99868.41
2018-09-09T23:58:55.989Z,99869.52
